Terminal Aerodrome Forecast
Issued by NWS

Home | Current Version | Previous Version | Text Only | Print | Product List | Glossary On
Versions: 1 2 3 4 5 6 7 8 9 10 11 12 13 14 15 16 17 18 19 20
000
FTUS45 KBYZ 211123
TAFLVM
TAF
KLVM 211123Z 2112/2212 31009KT P6SM FEW060
     FM211600 26015KT P6SM SCT120
     FM220100 24020G30KT P6SM SKC
     FM220500 22032G42KT P6SM SCT100 BKN200=

USA.gov is the U.S. government's official web portal to all federal, state and local government web resources and services.